createdAt,value
2019-04-10T00:00:29.113Z,57.25
2019-04-10T00:02:59.857Z,59.18
2019-04-10T00:05:29.459Z,61.42
2019-04-10T00:07:59.806Z,57.00
2019-04-10T00:10:30.268Z,57.70
2019-04-10T00:13:00.403Z,57.25
2019-04-10T00:15:31.280Z,56.70
2019-04-10T00:18:01.965Z,59.03
2019-04-10T00:20:32.320Z,59.55
2019-04-10T00:23:02.545Z,59.55
2019-04-10T00:25:33.326Z,59.27
2019-04-10T00:28:03.752Z,60.03
2019-04-10T00:30:34.079Z,59.27
2019-04-10T00:33:04.775Z,61.58
2019-04-10T00:35:35.212Z,61.40
2019-04-10T00:38:05.863Z,62.95
2019-04-10T00:40:35.909Z,62.25
2019-04-10T00:43:06.708Z,61.88
2019-04-10T00:45:37.658Z,61.58
2019-04-10T00:48:07.915Z,61.20
2019-04-10T00:50:38.931Z,62.67
2019-04-10T00:53:10.276Z,62.58
2019-04-10T00:55:41.285Z,63.10
2019-04-10T00:58:12.143Z,63.85
2019-04-10T01:00:43.352Z,63.40
2019-04-10T01:03:27.455Z,64.72
2019-04-10T01:05:57.871Z,65.05
2019-04-10T01:08:28.693Z,70.95
2019-04-10T01:10:59.380Z,68.05
2019-04-10T01:13:29.268Z,80.20
2019-04-10T01:16:00.729Z,72.40
2019-04-10T01:18:31.119Z,75.55
2019-04-10T01:21:02.007Z,71.33
2019-04-10T01:23:33.108Z,68.60
2019-04-10T01:26:03.559Z,66.75
2019-04-10T01:28:34.185Z,72.15
2019-04-10T01:31:04.505Z,71.25
2019-04-10T01:33:35.007Z,68.95
2019-04-10T01:36:05.389Z,71.70
2019-04-10T01:38:35.593Z,72.45
2019-04-10T01:41:05.804Z,74.30
2019-04-10T01:43:37.099Z,70.57
2019-04-10T01:46:08.370Z,70.10
2019-04-10T01:48:38.433Z,77.95
2019-04-10T01:51:08.745Z,78.65
2019-04-10T01:53:39.152Z,77.62
2019-04-10T01:56:21.138Z,80.62
2019-04-10T01:58:41.873Z,77.27
2019-04-10T02:01:20.640Z,80.38
2019-04-10T02:03:52.004Z,79.30
2019-04-10T02:06:21.330Z,74.25
2019-04-10T02:08:51.662Z,76.42
2019-04-10T02:11:21.801Z,74.15
2019-04-10T02:13:51.790Z,74.95
2019-04-10T02:16:21.559Z,75.72
2019-04-10T02:18:52.025Z,77.20
2019-04-10T02:21:23.392Z,73.90
2019-04-10T02:23:54.453Z,75.50
2019-04-10T02:26:25.544Z,73.75
2019-04-10T02:28:55.797Z,73.67
2019-04-10T02:31:28.093Z,77.50
2019-04-10T02:33:59.916Z,75.90
2019-04-10T02:36:31.582Z,77.60
2019-04-10T02:39:13.990Z,83.22
2019-04-10T02:41:34.559Z,83.78
2019-04-10T02:44:04.847Z,85.15
2019-04-10T02:46:36.779Z,87.88
2019-04-10T02:49:08.233Z,84.03
2019-04-10T02:51:41.097Z,88.30
2019-04-10T02:54:11.536Z,89.87
2019-04-10T02:56:44.201Z,89.75
2019-04-10T02:59:15.637Z,89.97
2019-04-10T03:01:45.635Z,92.60
2019-04-10T03:04:16.523Z,89.50
2019-04-10T03:06:47.903Z,84.45
2019-04-10T03:09:32.528Z,82.55
2019-04-10T03:11:51.929Z,87.60
2019-04-10T03:14:24.157Z,88.82
2019-04-10T03:16:55.496Z,88.47
2019-04-10T03:19:25.510Z,92.22
2019-04-10T03:21:57.577Z,97.80
2019-04-10T03:24:27.737Z,93.15
2019-04-10T03:26:58.310Z,95.38
2019-04-10T03:29:28.277Z,90.85
2019-04-10T03:31:59.540Z,90.95
2019-04-10T03:34:33.716Z,87.35
2019-04-10T03:37:02.892Z,91.65
2019-04-10T03:39:35.908Z,91.80
2019-04-10T03:42:06.505Z,90.55
2019-04-10T03:44:36.153Z,90.05
2019-04-10T03:47:07.086Z,89.67
2019-04-10T03:49:36.836Z,94.30
2019-04-10T03:52:07.252Z,94.32
2019-04-10T03:54:38.946Z,93.25
2019-04-10T03:57:10.036Z,93.80
2019-04-10T03:59:41.693Z,97.82
2019-04-10T04:02:13.609Z,101.75
2019-04-10T04:04:43.924Z,91.90
2019-04-10T04:07:15.382Z,94.70
2019-04-10T04:09:46.050Z,94.55
2019-04-10T04:12:16.073Z,96.28
2019-04-10T04:14:46.440Z,92.92
2019-04-10T04:17:16.158Z,92.80
2019-04-10T04:19:46.481Z,99.37
2019-04-10T04:22:16.692Z,97.90
2019-04-10T04:24:46.782Z,97.60
2019-04-10T04:27:17.546Z,93.12
2019-04-10T04:29:49.786Z,94.22
2019-04-10T04:32:21.689Z,94.65
2019-04-10T04:34:52.197Z,94.37
2019-04-10T04:37:22.932Z,92.42
2019-04-10T04:39:52.917Z,97.45
2019-04-10T04:42:22.703Z,97.57
2019-04-10T04:44:52.896Z,97.90
2019-04-10T04:47:22.979Z,90.90
2019-04-10T04:49:53.080Z,92.57
2019-04-10T04:52:24.024Z,95.17
2019-04-10T04:54:55.253Z,96.90
2019-04-10T04:57:24.951Z,96.72
2019-04-10T04:59:55.546Z,104.90
2019-04-10T05:02:26.214Z,97.53
2019-04-10T05:04:56.812Z,98.00
2019-04-10T05:07:27.222Z,97.50
2019-04-10T05:09:59.148Z,98.50
2019-04-10T05:12:29.371Z,95.97
2019-04-10T05:15:00.383Z,99.55
2019-04-10T05:17:30.956Z,96.45
2019-04-10T05:20:03.119Z,99.03
2019-04-10T05:22:33.729Z,98.45
2019-04-10T05:25:06.934Z,97.35
2019-04-10T05:27:37.200Z,96.72
2019-04-10T05:30:08.401Z,96.10
2019-04-10T05:32:39.707Z,102.32
2019-04-10T05:35:10.221Z,101.22
2019-04-10T05:37:40.947Z,104.45
2019-04-10T05:40:11.871Z,98.87
2019-04-10T05:42:42.076Z,101.38
2019-04-10T05:45:12.687Z,98.65
2019-04-10T05:47:44.449Z,101.00
2019-04-10T05:50:15.043Z,100.25
2019-04-10T05:52:45.158Z,99.97
2019-04-10T05:55:16.155Z,98.42
2019-04-10T05:57:46.613Z,96.90
2019-04-10T06:00:18.851Z,98.92
2019-04-10T06:02:50.186Z,96.85
2019-04-10T06:05:22.360Z,91.78
2019-04-10T06:07:52.091Z,93.62
2019-04-10T06:10:22.103Z,96.35
2019-04-10T06:12:53.082Z,96.60
2019-04-10T06:15:23.232Z,98.10
2019-04-10T06:17:54.543Z,92.82
2019-04-10T06:20:25.095Z,95.10
2019-04-10T06:22:55.292Z,98.42
2019-04-10T06:25:25.843Z,94.60
2019-04-10T06:27:56.853Z,97.65
2019-04-10T06:30:27.963Z,95.83
2019-04-10T06:32:57.990Z,95.83
2019-04-10T06:35:28.419Z,100.20
2019-04-10T06:38:00.382Z,98.50
2019-04-10T06:40:31.152Z,94.52
2019-04-10T06:43:01.039Z,93.85
2019-04-10T06:45:31.672Z,92.40
2019-04-10T06:48:02.689Z,95.22
2019-04-10T06:50:33.138Z,96.70
2019-04-10T06:53:04.161Z,99.55
2019-04-10T06:55:34.720Z,95.25
2019-04-10T06:58:05.215Z,97.27
2019-04-10T07:00:36.927Z,93.30
2019-04-10T07:03:08.512Z,91.97
2019-04-10T07:05:49.672Z,96.90
2019-04-10T07:08:16.543Z,101.75
2019-04-10T07:10:51.979Z,96.00
2019-04-10T07:13:15.533Z,98.70
2019-04-10T07:15:46.966Z,102.38
2019-04-10T07:18:20.242Z,101.65
2019-04-10T07:20:49.009Z,100.05
2019-04-10T07:23:25.897Z,101.42
2019-04-10T07:25:52.053Z,90.25
2019-04-10T07:28:23.564Z,95.85
2019-04-10T07:30:56.866Z,101.80
2019-04-10T07:33:25.231Z,99.15
2019-04-10T07:35:56.608Z,92.95
2019-04-10T07:38:27.205Z,94.13
2019-04-10T07:40:56.962Z,95.17
2019-04-10T07:43:28.912Z,92.15
2019-04-10T07:45:59.984Z,91.02
2019-04-10T07:48:29.683Z,94.15
2019-04-10T07:51:00.601Z,87.65
2019-04-10T07:53:30.986Z,91.35
2019-04-10T07:56:06.883Z,88.03
2019-04-10T07:58:33.867Z,91.82
2019-04-10T08:01:05.105Z,86.47
2019-04-10T08:03:35.450Z,87.80
2019-04-10T08:06:07.002Z,90.20
2019-04-10T08:08:38.334Z,91.32
2019-04-10T08:11:07.750Z,86.12
2019-04-10T08:13:37.052Z,105.03
2019-04-10T08:16:08.273Z,100.97
2019-04-10T08:18:39.451Z,87.95
2019-04-10T08:21:09.957Z,85.32
2019-04-10T08:23:40.517Z,85.00
2019-04-10T08:26:10.903Z,86.78
2019-04-10T08:28:41.282Z,83.12
2019-04-10T08:31:12.765Z,83.90
2019-04-10T08:33:42.610Z,86.95
2019-04-10T08:36:13.288Z,92.37
2019-04-10T08:38:42.962Z,80.83
2019-04-10T08:41:13.157Z,87.90
2019-04-10T08:43:43.622Z,83.05
2019-04-10T08:46:13.996Z,82.20
2019-04-10T08:48:44.684Z,78.12
2019-04-10T08:51:14.933Z,76.97
2019-04-10T08:53:46.605Z,77.45
2019-04-10T08:56:18.350Z,76.77
2019-04-10T08:58:49.485Z,76.82
2019-04-10T09:01:20.887Z,77.00
2019-04-10T09:03:51.477Z,71.80
2019-04-10T09:06:21.539Z,71.30
2019-04-10T09:08:51.592Z,73.17
2019-04-10T09:11:26.184Z,77.42
2019-04-10T09:13:54.941Z,71.05
2019-04-10T09:16:25.300Z,75.47
2019-04-10T09:18:55.772Z,71.65
2019-04-10T09:21:25.628Z,70.40
2019-04-10T09:23:57.681Z,73.37
2019-04-10T09:26:28.607Z,74.65
2019-04-10T09:28:59.359Z,75.22
2019-04-10T09:31:29.803Z,75.00
2019-04-10T09:33:59.460Z,73.45
2019-04-10T09:36:29.529Z,76.50
2019-04-10T09:38:59.419Z,73.45
2019-04-10T09:41:30.015Z,68.05
2019-04-10T09:44:00.976Z,70.08
2019-04-10T09:46:31.081Z,70.00
2019-04-10T09:49:02.526Z,71.77
2019-04-10T09:51:32.751Z,74.00
2019-04-10T09:54:03.576Z,72.62
2019-04-10T09:56:34.511Z,73.45
2019-04-10T09:59:05.372Z,73.05
2019-04-10T10:01:36.243Z,71.17
2019-04-10T10:04:07.054Z,74.37
2019-04-10T10:06:38.463Z,70.67
2019-04-10T10:09:09.076Z,73.25
2019-04-10T10:11:39.590Z,72.03
2019-04-10T10:14:10.394Z,71.40
2019-04-10T10:16:42.183Z,67.12
2019-04-10T10:19:12.411Z,70.75
2019-04-10T10:21:43.130Z,69.72
2019-04-10T10:24:14.093Z,68.57
2019-04-10T10:26:46.468Z,75.83
2019-04-10T10:29:17.595Z,66.87
2019-04-10T10:31:49.802Z,71.20
2019-04-10T10:34:20.641Z,71.30
2019-04-10T10:36:53.234Z,72.62
2019-04-10T10:39:23.311Z,67.92
2019-04-10T10:41:54.345Z,66.60
2019-04-10T10:44:26.120Z,66.72
2019-04-10T10:46:57.924Z,65.57
2019-04-10T10:49:28.576Z,63.80
2019-04-10T10:51:59.400Z,65.55
2019-04-10T10:54:29.861Z,62.70
2019-04-10T10:57:02.549Z,62.53
2019-04-10T10:59:33.609Z,65.47
2019-04-10T11:02:04.572Z,66.22
2019-04-10T11:04:35.470Z,62.58
2019-04-10T11:07:06.813Z,65.50
2019-04-10T11:09:37.276Z,63.08
2019-04-10T11:12:09.531Z,67.53
2019-04-10T11:14:40.507Z,62.33
2019-04-10T11:17:11.900Z,57.58
2019-04-10T11:19:43.405Z,61.33
2019-04-10T11:22:14.864Z,57.67
2019-04-10T11:24:46.876Z,60.40
2019-04-10T11:27:18.038Z,60.95
2019-04-10T11:29:48.681Z,59.77
2019-04-10T11:32:19.904Z,58.15
2019-04-10T11:34:50.702Z,61.08
2019-04-10T11:37:35.028Z,58.63
2019-04-10T11:40:01.035Z,58.02
2019-04-10T11:42:32.204Z,55.65
2019-04-10T11:45:06.022Z,58.80
2019-04-10T11:47:36.385Z,59.27
2019-04-10T11:50:09.501Z,56.33
2019-04-10T11:52:44.736Z,53.75
2019-04-10T11:55:16.171Z,55.43
2019-04-10T11:57:45.900Z,55.20
2019-04-10T12:00:20.375Z,54.80
2019-04-10T12:02:52.408Z,53.78
2019-04-10T12:05:22.046Z,55.63
2019-04-10T12:08:17.998Z,55.50
2019-04-10T12:12:57.510Z,56.73
2019-04-10T12:15:28.167Z,56.45
2019-04-10T12:17:58.588Z,57.73
2019-04-10T12:20:29.240Z,55.78
2019-04-10T12:23:00.756Z,55.28
2019-04-10T12:25:31.182Z,55.83
2019-04-10T12:28:01.671Z,57.17
2019-04-10T12:30:32.613Z,54.00
2019-04-10T12:33:03.403Z,56.55
2019-04-10T12:35:33.980Z,55.85
2019-04-10T12:38:09.732Z,56.77
2019-04-10T12:40:38.951Z,57.73
2019-04-10T12:43:08.778Z,57.65
2019-04-10T12:45:40.292Z,57.80
2019-04-10T12:48:10.497Z,56.60
2019-04-10T12:50:41.270Z,58.17
2019-04-10T12:53:11.727Z,54.77
2019-04-10T12:55:42.184Z,54.95
2019-04-10T12:58:17.047Z,57.50
2019-04-10T13:00:44.627Z,55.70
2019-04-10T13:03:16.658Z,56.25
2019-04-10T13:05:47.271Z,54.75
2019-04-10T13:08:21.682Z,55.08
2019-04-10T13:10:49.418Z,55.98
2019-04-10T13:13:19.999Z,54.05
2019-04-10T13:15:49.870Z,53.80
2019-04-10T13:18:20.625Z,53.40
2019-04-10T13:20:50.736Z,52.65
2019-04-10T13:23:20.833Z,54.58
2019-04-10T13:25:59.149Z,52.33
2019-04-10T13:28:23.397Z,52.23
2019-04-10T13:30:56.432Z,53.20
2019-04-10T13:33:26.795Z,53.98
2019-04-10T13:35:57.608Z,54.83
2019-04-10T13:38:32.659Z,51.68
2019-04-10T13:40:59.747Z,52.40
2019-04-10T13:43:29.906Z,54.67
2019-04-10T13:46:00.567Z,54.40
2019-04-10T13:48:31.450Z,54.48
2019-04-10T13:51:01.308Z,53.98
2019-04-10T13:53:30.659Z,53.45
2019-04-10T13:56:00.982Z,54.88
2019-04-10T13:58:31.565Z,54.10
2019-04-10T14:01:01.328Z,52.55
2019-04-10T14:03:31.356Z,53.20
2019-04-10T14:06:01.472Z,51.90
2019-04-10T14:08:47.199Z,53.48
2019-04-10T14:11:04.764Z,52.85
2019-04-10T14:13:35.870Z,53.38
2019-04-10T14:16:06.665Z,52.80
2019-04-10T14:18:37.129Z,54.20
2019-04-10T14:21:12.913Z,53.15
2019-04-10T14:23:39.810Z,56.70
2019-04-10T14:26:43.713Z,52.55
2019-04-10T14:29:18.466Z,54.73
2019-04-10T14:31:53.255Z,52.75
2019-04-10T14:34:23.714Z,53.45
2019-04-10T14:36:54.796Z,55.15
2019-04-10T14:39:24.975Z,57.10
2019-04-10T14:41:55.313Z,53.17
2019-04-10T14:44:25.506Z,57.20
2019-04-10T14:46:55.228Z,57.05
2019-04-10T14:49:25.364Z,59.65
2019-04-10T14:51:56.789Z,60.05
2019-04-10T14:54:27.981Z,55.67
2019-04-10T14:56:57.384Z,54.10
2019-04-10T14:59:28.217Z,54.25
2019-04-10T15:01:58.741Z,54.30
2019-04-10T15:04:29.446Z,52.70
2019-04-10T15:06:59.857Z,54.42
2019-04-10T15:09:30.719Z,56.20
2019-04-10T15:12:01.188Z,52.07
2019-04-10T15:14:33.876Z,53.65
2019-04-10T15:17:06.199Z,52.13
2019-04-10T15:19:36.416Z,50.73
2019-04-10T15:22:07.415Z,49.75
2019-04-10T15:24:37.931Z,49.40
2019-04-10T15:27:08.996Z,52.83
2019-04-10T15:29:40.770Z,51.53
2019-04-10T15:32:10.984Z,52.53
2019-04-10T15:34:41.639Z,48.33
2019-04-10T15:37:12.943Z,51.00
2019-04-10T15:39:44.755Z,54.27
2019-04-10T15:42:16.146Z,57.45
2019-04-10T15:44:46.670Z,48.02
2019-04-10T15:47:21.435Z,47.45
2019-04-10T15:49:49.459Z,47.30
2019-04-10T15:52:19.917Z,48.92
2019-04-10T15:54:53.424Z,49.42
2019-04-10T15:57:22.778Z,45.28
2019-04-10T15:59:54.587Z,49.93
2019-04-10T16:02:25.878Z,48.08
2019-04-10T16:04:57.247Z,57.35
2019-04-10T16:07:28.763Z,53.33
2019-04-10T16:10:08.521Z,49.23
2019-04-10T16:12:39.515Z,47.93
2019-04-10T16:15:11.186Z,44.20
2019-04-10T16:17:52.209Z,44.70
2019-04-10T16:20:25.253Z,44.42
2019-04-10T16:23:01.223Z,41.42
2019-04-10T16:25:32.041Z,40.35
2019-04-10T16:28:04.091Z,41.35
2019-04-10T16:30:34.953Z,40.33
2019-04-10T16:33:05.376Z,40.85
2019-04-10T16:35:37.204Z,39.73
2019-04-10T16:38:08.543Z,41.45
2019-04-10T16:40:40.448Z,44.60
2019-04-10T16:43:10.276Z,43.45
2019-04-10T16:45:40.759Z,44.25
2019-04-10T16:48:10.670Z,41.63
2019-04-10T16:50:41.430Z,41.85
2019-04-10T16:53:12.265Z,41.10
2019-04-10T16:55:43.062Z,41.53
2019-04-10T16:58:13.754Z,44.30
2019-04-10T17:00:43.899Z,42.48
2019-04-10T17:03:13.558Z,43.70
2019-04-10T17:05:44.063Z,41.08
2019-04-10T17:08:14.294Z,42.43
2019-04-10T17:10:44.831Z,40.23
2019-04-10T17:13:16.243Z,39.73
2019-04-10T17:15:48.640Z,40.33
2019-04-10T17:18:19.141Z,38.78
2019-04-10T17:20:48.966Z,39.30
2019-04-10T17:23:20.314Z,40.43
2019-04-10T17:25:50.769Z,40.63
2019-04-10T17:28:22.994Z,39.70
2019-04-10T17:34:30.887Z,37.80
2019-04-10T17:37:01.195Z,40.38
2019-04-10T17:39:31.339Z,41.63
2019-04-10T17:42:30.395Z,41.83
2019-04-10T17:45:00.599Z,39.98
2019-04-10T17:47:31.283Z,40.43
2019-04-10T17:50:01.540Z,39.27
2019-04-10T17:52:34.677Z,41.40
2019-04-10T17:55:04.265Z,43.98
2019-04-10T17:57:39.850Z,43.87
2019-04-10T18:00:11.164Z,45.43
2019-04-10T18:02:43.044Z,46.02
2019-04-10T18:05:14.813Z,43.80
2019-04-10T18:07:46.019Z,43.05
2019-04-10T18:10:16.616Z,45.20
2019-04-10T18:12:46.675Z,46.83
2019-04-10T18:15:17.661Z,46.20
2019-04-10T18:17:49.240Z,46.53
2019-04-10T18:20:19.955Z,46.58
2019-04-10T18:22:51.942Z,45.70
2019-04-10T18:25:22.406Z,45.98
2019-04-10T18:27:53.216Z,46.83
2019-04-10T18:30:23.859Z,44.95
2019-04-10T18:32:54.396Z,46.85
2019-04-10T18:35:25.172Z,46.53
2019-04-10T18:37:55.294Z,47.93
2019-04-10T18:40:25.414Z,46.50
2019-04-10T18:42:57.543Z,47.48
2019-04-10T18:45:28.155Z,47.15
2019-04-10T18:47:58.569Z,46.18
2019-04-10T18:50:28.791Z,48.50
2019-04-10T18:52:59.354Z,47.25
2019-04-10T18:55:30.109Z,44.85
2019-04-10T18:58:01.574Z,46.00
2019-04-10T19:00:50.983Z,47.88
2019-04-10T19:03:49.096Z,42.80
2019-04-10T19:06:23.170Z,47.65
2019-04-10T19:09:04.957Z,50.23
2019-04-10T19:11:29.085Z,50.78
2019-04-10T19:13:57.261Z,48.45
2019-04-10T19:16:27.740Z,50.28
2019-04-10T19:18:57.744Z,53.30
2019-04-10T19:21:29.164Z,48.58
2019-04-10T19:24:01.513Z,50.30
2019-04-10T19:31:49.150Z,45.70
2019-04-10T19:34:45.631Z,45.23
2019-04-10T19:37:16.527Z,41.90
2019-04-10T19:39:46.733Z,42.83
2019-04-10T19:42:17.456Z,41.33
2019-04-10T19:44:47.901Z,42.40
2019-04-10T19:47:18.367Z,43.92
2019-04-10T19:49:48.723Z,42.40
2019-04-10T19:52:20.216Z,41.60
2019-04-10T19:55:38.002Z,42.33
2019-04-10T19:58:08.180Z,41.48
2019-04-10T20:00:38.879Z,40.78
2019-04-10T20:03:09.543Z,42.75
2019-04-10T20:05:39.711Z,40.17
2019-04-10T20:08:12.765Z,40.55
2019-04-10T20:10:43.647Z,38.98
2019-04-10T20:13:14.441Z,40.10
2019-04-10T20:15:45.186Z,37.03
2019-04-10T20:18:16.576Z,36.17
2019-04-10T20:20:47.807Z,36.30
2019-04-10T20:23:19.464Z,36.17
2019-04-10T20:25:50.504Z,37.13
2019-04-10T20:28:21.315Z,35.60
2019-04-10T20:30:53.553Z,33.80
2019-04-10T20:33:23.555Z,35.15
2019-04-10T20:35:53.579Z,34.33
2019-04-10T20:38:25.115Z,34.33
2019-04-10T20:40:55.331Z,34.05
2019-04-10T20:43:28.127Z,33.45
2019-04-10T20:45:57.961Z,34.95
2019-04-10T20:48:28.735Z,33.38
2019-04-10T20:50:58.876Z,32.65
2019-04-10T20:53:29.372Z,33.23
2019-04-10T20:56:00.229Z,37.30
2019-04-10T20:58:30.606Z,35.15
2019-04-10T21:01:01.038Z,33.95
2019-04-10T21:03:31.759Z,34.18
2019-04-10T21:06:02.651Z,34.20
2019-04-10T21:08:34.144Z,34.50
2019-04-10T21:11:05.594Z,32.80
2019-04-10T21:13:35.855Z,33.42
2019-04-10T21:16:07.022Z,28.65
2019-04-10T21:18:37.891Z,28.57
2019-04-10T21:21:08.291Z,29.40
2019-04-10T21:23:38.638Z,29.07
2019-04-10T21:26:08.776Z,26.68
2019-04-10T21:28:39.433Z,26.33
2019-04-10T21:31:38.609Z,24.18
2019-04-10T21:34:22.432Z,25.17
2019-04-10T21:36:53.312Z,24.80
2019-04-10T21:39:23.903Z,25.02
2019-04-10T21:41:53.598Z,25.82
2019-04-10T21:44:24.690Z,24.75
2019-04-10T21:46:55.140Z,24.47
2019-04-10T21:49:26.178Z,23.80
2019-04-10T21:51:56.319Z,24.27
2019-04-10T21:54:27.086Z,25.10
2019-04-10T21:56:59.692Z,23.00
2019-04-10T21:59:30.959Z,23.32
2019-04-10T22:02:01.394Z,22.15
2019-04-10T22:04:32.892Z,22.07
2019-04-10T22:07:26.486Z,22.22
2019-04-10T22:10:15.463Z,21.25
2019-04-10T22:12:47.669Z,21.85
2019-04-10T22:15:30.952Z,20.55
2019-04-10T22:18:00.842Z,21.37
2019-04-10T22:20:31.840Z,20.27
2019-04-10T22:23:02.599Z,21.90
2019-04-10T22:25:32.195Z,22.13
2019-04-10T22:28:02.628Z,20.97
2019-04-10T22:30:32.926Z,22.05
2019-04-10T22:33:03.388Z,21.45
2019-04-10T22:35:33.548Z,20.02
2019-04-10T22:38:04.528Z,21.95
2019-04-10T22:40:34.943Z,20.92
2019-04-10T22:43:05.490Z,21.15
2019-04-10T22:45:36.083Z,20.00
2019-04-10T22:48:06.265Z,19.98
2019-04-10T22:50:37.020Z,20.43
2019-04-10T22:53:06.995Z,21.07
2019-04-10T22:55:37.360Z,21.97
2019-04-10T22:58:08.714Z,19.98
2019-04-10T23:00:39.799Z,19.25
2019-04-10T23:03:09.614Z,20.68
2019-04-10T23:05:40.642Z,20.30
2019-04-10T23:08:11.514Z,20.48
2019-04-10T23:10:41.822Z,20.00
2019-04-10T23:13:12.087Z,20.57
2019-04-10T23:15:42.440Z,21.73
2019-04-10T23:18:13.019Z,21.27
2019-04-10T23:20:43.833Z,21.90
2019-04-10T23:23:32.974Z,22.65
2019-04-10T23:26:02.906Z,22.07
2019-04-10T23:28:33.753Z,21.87
2019-04-10T23:31:03.623Z,21.90
2019-04-10T23:33:34.538Z,22.22
2019-04-10T23:36:05.649Z,23.42
2019-04-10T23:38:35.726Z,23.65
2019-04-10T23:41:05.796Z,21.50
2019-04-10T23:43:36.075Z,22.77
2019-04-10T23:46:06.467Z,20.65
2019-04-10T23:48:37.100Z,21.50
2019-04-10T23:51:07.066Z,20.95
2019-04-10T23:53:38.432Z,20.62
2019-04-10T23:56:08.506Z,20.12
2019-04-10T23:58:38.546Z,20.55
